CMA CGM La Boussole — A8FZ6 — position and weather

sailwx.info

Track history (hours):
 
Tides and Currents Weather Stations Pressure Air Temp Water Temp Dewpoint Dewpoint Depression Visibility Wind Speed Wind Dir Waves Ship Positions

CMA CGM La Boussole

Last reported at 2015-Mar-06 05:28 UTC. Time now 2015-Mar-06 06:07 UTC.
Position N 44°24' E 008°54'.

Length 210.1 m; beam 30.2 m; draft 11.5 m.

Type: Ship (hazmat cat D). MMSI: 636090821.

Date/timePositionNaut miles runAvg speedWind from/ knotsBaromVisibWave heightAir tempDewpointWater temp
2015-Mar-06 05:28N 44°24' E 008°54'0 0.0
2015-Mar-06 04:28N 44°24' E 008°54'0 0.0
2015-Mar-06 03:33N 44°24' E 008°54'0 0.0
2015-Mar-06 02:33N 44°24' E 008°54'0 0.0
2015-Mar-06 01:33N 44°24' E 008°54'0 0.0
2015-Mar-06 00:32N 44°24' E 008°54'0 0.0
2015-Mar-05 23:32N 44°24' E 008°54'0 0.0
2015-Mar-05 22:31N 44°24' E 008°54'0 0.0
2015-Mar-05 21:31N 44°24' E 008°54'0 0.0
2015-Mar-05 20:33N 44°24' E 008°54'0 0.0
2015-Mar-05 19:33N 44°24' E 008°54'0 0.0
2015-Mar-05 18:33N 44°24' E 008°54'0 0.0
2015-Mar-05 17:32N 44°24' E 008°54'0 0.0
2015-Mar-05 16:32N 44°24' E 008°54'0 0.0
2015-Mar-05 15:31N 44°24' E 008°54'1 0.5
2015-Mar-05 14:33N 44°24' E 008°54'5 4.6
2015-Mar-05 13:33N 44°21' E 008°59'2 2.3
2015-Mar-05 12:34N 44°18' E 008°60'7 7.3
2015-Mar-05 11:33N 44°11' E 008°58'2 1.8
2015-Mar-05 10:34N 44°09' E 008°58'2 2.4
2015-Mar-05 09:33N 44°12' E 008°59'3 2.7
2015-Mar-05 08:33N 44°14' E 009°00'2 1.7
2015-Mar-05 07:33N 44°15' E 009°02'4 4.0
2015-Mar-05 06:33N 44°11' E 009°00'0 0.3
2015-Mar-05 05:34N 44°12' E 009°01'3 2.6
2015-Mar-05 04:34N 44°14' E 009°03'1 0.9
2015-Mar-05 03:33N 44°14' E 009°04'4 3.6
2015-Mar-05 02:33N 44°11' E 009°01'2 2.4
2015-Mar-05 01:33N 44°13' E 009°03'3 2.7
2015-Mar-05 00:33N 44°13' E 009°06'1414.0
2015-Mar-04 23:33N 44°03' E 009°19'1313.2
2015-Mar-04 22:33N 43°53' E 009°31'1413.9
2015-Mar-04 21:33N 43°42' E 009°43'1413.6
2015-Mar-04 20:33N 43°33' E 009°57'1312.6
2015-Mar-04 19:34N 43°32' E 010°14'4 3.9
2015-Mar-04 18:32N 43°35' E 010°18'0 0.0
2015-Mar-04 17:32N 43°35' E 010°18'0 0.0
2015-Mar-04 16:31N 43°35' E 010°18'0 0.0
2015-Mar-04 15:31N 43°35' E 010°18'0 0.0
2015-Mar-04 14:30N 43°35' E 010°18'0 0.0
2015-Mar-04 13:33N 43°35' E 010°18'0 0.0
2015-Mar-04 12:32N 43°35' E 010°18'0 0.0
2015-Mar-04 11:32N 43°35' E 010°18'0 0.0
2015-Mar-04 10:31N 43°35' E 010°18'0 0.0
2015-Mar-04 09:31N 43°35' E 010°18'0 0.0
2015-Mar-04 08:31N 43°35' E 010°18'0 0.0
2015-Mar-04 07:33N 43°35' E 010°18'0 0.0
2015-Mar-04 06:33N 43°35' E 010°18'0 0.0
2015-Mar-04 05:32N 43°35' E 010°18'0 0.0
2015-Mar-04 04:32N 43°35' E 010°18'0 0.0
2015-Mar-04 03:31N 43°35' E 010°18'0 0.0
2015-Mar-04 02:31N 43°35' E 010°18'0 0.0
2015-Mar-04 01:31N 43°35' E 010°18'0 0.0
2015-Mar-04 00:33N 43°35' E 010°18'0 0.0
2015-Mar-03 23:33N 43°35' E 010°18'0 0.0
2015-Mar-03 22:32N 43°35' E 010°18'0 0.0
2015-Mar-03 21:32N 43°35' E 010°18'0 0.0
2015-Mar-03 20:31N 43°35' E 010°18'0 0.0
2015-Mar-03 19:31N 43°35' E 010°18'0 0.0
2015-Mar-03 18:31N 43°35' E 010°18'0 0.0
2015-Mar-03 17:33N 43°35' E 010°18'0 0.0
2015-Mar-03 16:33N 43°35' E 010°18'4 4.0
2015-Mar-03 15:33N 43°31' E 010°16'1616.4
2015-Mar-03 14:33N 43°20' E 009°59'1919.3
2015-Mar-03 13:33N 43°16' E 009°33'2119.0
2015-Mar-03 12:29N 43°09' E 009°07'8019.7
2015-Mar-03 08:26N 42°25' E 007°36'18419.6
2015-Mar-02 23:03N 40°44' E 004°11'4919.3
2015-Mar-02 20:30N 40°17' E 003°17'1919.6
2015-Mar-02 19:33N 40°06' E 002°58'2019.8
2015-Mar-02 18:33N 39°54' E 002°37'2020.0
2015-Mar-02 17:32N 39°42' E 002°15'1919.6
2015-Mar-02 16:33N 39°31' E 001°55'2019.8
2015-Mar-02 15:33N 39°19' E 001°34'2220.0
2015-Mar-02 14:27N 39°06' E 001°11'1819.9
2015-Mar-02 13:32N 38°54' E 000°54'6719.8
2015-Mar-02 10:10N 38°02' W 000°01'1919.8
2015-Mar-02 09:12N 37°47' W 000°16'1319.9
2015-Mar-02 08:34N 37°38' W 000°26'1919.2
2015-Mar-02 07:33N 37°25' W 000°44'2019.5
2015-Mar-02 06:33N 37°11' W 001°02'21219.3
2015-Mar-01 19:33N 36°03' W 005°13'1111.3
2015-Mar-01 18:33N 36°08' W 005°25'0 0.0
2015-Mar-01 17:33N 36°08' W 005°25'0 0.0
2015-Mar-01 16:32N 36°08' W 005°25'0 0.0
2015-Mar-01 15:29N 36°08' W 005°25'0 0.0
2015-Mar-01 14:23N 36°08' W 005°25'0 0.0
2015-Mar-01 13:32N 36°08' W 005°25'0 0.0
2015-Mar-01 12:32N 36°08' W 005°25'0 0.0
2015-Mar-01 11:31N 36°08' W 005°25'0 0.0
2015-Mar-01 10:31N 36°08' W 005°25'0 0.0
2015-Mar-01 09:33N 36°08' W 005°25'0 0.0
2015-Mar-01 08:33N 36°08' W 005°25'0 0.0
2015-Mar-01 07:33N 36°08' W 005°25'0 0.0
2015-Mar-01 06:32N 36°08' W 005°25'2 2.4
2015-Mar-01 05:33N 36°06' W 005°23'10 9.8
2015-Mar-01 04:33N 35°58' W 005°28'53418.7
2015-Feb-28 00:00N 34°24' W 016°12'43718.6 030 / 211033.010.8 15.513.7
2015-Feb-27 00:32N 32°30' W 024°37'23118.5
2015-Feb-26 12:00N 31°12' W 028°54'22819.0 070 / 271031.010.8 19.515.3
2015-Feb-26 00:00N 29°48' W 033°00'24820.6 100 / 231030.510.8 20.015.8
2015-Feb-25 12:00N 28°18' W 037°24'21417.9 110 / 161028.510.8 22.016.3
2015-Feb-25 00:00N 26°42' W 041°00'   100 / 201026.010.8 21.515.7
Track history (hours):
 
Tides and Currents Weather Stations Pressure Air Temp Water Temp Dewpoint Dewpoint Depression Visibility Wind Speed Wind Dir Waves Ship Positions

CMA CGM La Boussole

Last reported at 2015-Mar-06 05:28 UTC. Time now 2015-Mar-06 06:07 UTC.
Position N 44°24' E 008°54'.

Length 210.1 m; beam 30.2 m; draft 11.5 m.

Type: Ship (hazmat cat D). MMSI: 636090821.

Date/timePositionNaut miles runAvg speedWind from/ knotsBaromVisibWave heightAir tempDewpointWater temp
2015-Mar-06 05:28N 44°24' E 008°54'0 0.0
2015-Mar-06 04:28N 44°24' E 008°54'0 0.0
2015-Mar-06 03:33N 44°24' E 008°54'0 0.0
2015-Mar-06 02:33N 44°24' E 008°54'0 0.0
2015-Mar-06 01:33N 44°24' E 008°54'0 0.0
2015-Mar-06 00:32N 44°24' E 008°54'0 0.0
2015-Mar-05 23:32N 44°24' E 008°54'0 0.0
2015-Mar-05 22:31N 44°24' E 008°54'0 0.0
2015-Mar-05 21:31N 44°24' E 008°54'0 0.0
2015-Mar-05 20:33N 44°24' E 008°54'0 0.0
2015-Mar-05 19:33N 44°24' E 008°54'0 0.0
2015-Mar-05 18:33N 44°24' E 008°54'0 0.0
2015-Mar-05 17:32N 44°24' E 008°54'0 0.0
2015-Mar-05 16:32N 44°24' E 008°54'0 0.0
2015-Mar-05 15:31N 44°24' E 008°54'1 0.5
2015-Mar-05 14:33N 44°24' E 008°54'5 4.6
2015-Mar-05 13:33N 44°21' E 008°59'2 2.3
2015-Mar-05 12:34N 44°18' E 008°60'7 7.3
2015-Mar-05 11:33N 44°11' E 008°58'2 1.8
2015-Mar-05 10:34N 44°09' E 008°58'2 2.4
2015-Mar-05 09:33N 44°12' E 008°59'3 2.7
2015-Mar-05 08:33N 44°14' E 009°00'2 1.7
2015-Mar-05 07:33N 44°15' E 009°02'4 4.0
2015-Mar-05 06:33N 44°11' E 009°00'0 0.3
2015-Mar-05 05:34N 44°12' E 009°01'3 2.6
2015-Mar-05 04:34N 44°14' E 009°03'1 0.9
2015-Mar-05 03:33N 44°14' E 009°04'4 3.6
2015-Mar-05 02:33N 44°11' E 009°01'2 2.4
2015-Mar-05 01:33N 44°13' E 009°03'3 2.7
2015-Mar-05 00:33N 44°13' E 009°06'1414.0
2015-Mar-04 23:33N 44°03' E 009°19'1313.2
2015-Mar-04 22:33N 43°53' E 009°31'1413.9
2015-Mar-04 21:33N 43°42' E 009°43'1413.6
2015-Mar-04 20:33N 43°33' E 009°57'1312.6
2015-Mar-04 19:34N 43°32' E 010°14'4 3.9
2015-Mar-04 18:32N 43°35' E 010°18'0 0.0
2015-Mar-04 17:32N 43°35' E 010°18'0 0.0
2015-Mar-04 16:31N 43°35' E 010°18'0 0.0
2015-Mar-04 15:31N 43°35' E 010°18'0 0.0
2015-Mar-04 14:30N 43°35' E 010°18'0 0.0
2015-Mar-04 13:33N 43°35' E 010°18'0 0.0
2015-Mar-04 12:32N 43°35' E 010°18'0 0.0
2015-Mar-04 11:32N 43°35' E 010°18'0 0.0
2015-Mar-04 10:31N 43°35' E 010°18'0 0.0
2015-Mar-04 09:31N 43°35' E 010°18'0 0.0
2015-Mar-04 08:31N 43°35' E 010°18'0 0.0
2015-Mar-04 07:33N 43°35' E 010°18'0 0.0
2015-Mar-04 06:33N 43°35' E 010°18'0 0.0
2015-Mar-04 05:32N 43°35' E 010°18'0 0.0
2015-Mar-04 04:32N 43°35' E 010°18'0 0.0
2015-Mar-04 03:31N 43°35' E 010°18'0 0.0
2015-Mar-04 02:31N 43°35' E 010°18'0 0.0
2015-Mar-04 01:31N 43°35' E 010°18'0 0.0
2015-Mar-04 00:33N 43°35' E 010°18'0 0.0
2015-Mar-03 23:33N 43°35' E 010°18'0 0.0
2015-Mar-03 22:32N 43°35' E 010°18'0 0.0
2015-Mar-03 21:32N 43°35' E 010°18'0 0.0
2015-Mar-03 20:31N 43°35' E 010°18'0 0.0
2015-Mar-03 19:31N 43°35' E 010°18'0 0.0
2015-Mar-03 18:31N 43°35' E 010°18'0 0.0
2015-Mar-03 17:33N 43°35' E 010°18'0 0.0
2015-Mar-03 16:33N 43°35' E 010°18'4 4.0
2015-Mar-03 15:33N 43°31' E 010°16'1616.4
2015-Mar-03 14:33N 43°20' E 009°59'1919.3
2015-Mar-03 13:33N 43°16' E 009°33'2119.0
2015-Mar-03 12:29N 43°09' E 009°07'8019.7
2015-Mar-03 08:26N 42°25' E 007°36'18419.6
2015-Mar-02 23:03N 40°44' E 004°11'4919.3
2015-Mar-02 20:30N 40°17' E 003°17'1919.6
2015-Mar-02 19:33N 40°06' E 002°58'2019.8
2015-Mar-02 18:33N 39°54' E 002°37'2020.0
2015-Mar-02 17:32N 39°42' E 002°15'1919.6
2015-Mar-02 16:33N 39°31' E 001°55'2019.8
2015-Mar-02 15:33N 39°19' E 001°34'2220.0
2015-Mar-02 14:27N 39°06' E 001°11'1819.9
2015-Mar-02 13:32N 38°54' E 000°54'6719.8
2015-Mar-02 10:10N 38°02' W 000°01'1919.8
2015-Mar-02 09:12N 37°47' W 000°16'1319.9
2015-Mar-02 08:34N 37°38' W 000°26'1919.2
2015-Mar-02 07:33N 37°25' W 000°44'2019.5
2015-Mar-02 06:33N 37°11' W 001°02'21219.3
2015-Mar-01 19:33N 36°03' W 005°13'1111.3
2015-Mar-01 18:33N 36°08' W 005°25'0 0.0
2015-Mar-01 17:33N 36°08' W 005°25'0 0.0
2015-Mar-01 16:32N 36°08' W 005°25'0 0.0
2015-Mar-01 15:29N 36°08' W 005°25'0 0.0
2015-Mar-01 14:23N 36°08' W 005°25'0 0.0
2015-Mar-01 13:32N 36°08' W 005°25'0 0.0
2015-Mar-01 12:32N 36°08' W 005°25'0 0.0
2015-Mar-01 11:31N 36°08' W 005°25'0 0.0
2015-Mar-01 10:31N 36°08' W 005°25'0 0.0
2015-Mar-01 09:33N 36°08' W 005°25'0 0.0
2015-Mar-01 08:33N 36°08' W 005°25'0 0.0
2015-Mar-01 07:33N 36°08' W 005°25'0 0.0
2015-Mar-01 06:32N 36°08' W 005°25'2 2.4
2015-Mar-01 05:33N 36°06' W 005°23'10 9.8
2015-Mar-01 04:33N 35°58' W 005°28'53418.7
2015-Feb-28 00:00N 34°24' W 016°12'43718.6 030 / 211033.010.8 15.513.7
2015-Feb-27 00:32N 32°30' W 024°37'23118.5
2015-Feb-26 12:00N 31°12' W 028°54'22819.0 070 / 271031.010.8 19.515.3
2015-Feb-26 00:00N 29°48' W 033°00'24820.6 100 / 231030.510.8 20.015.8
2015-Feb-25 12:00N 28°18' W 037°24'21417.9 110 / 161028.510.8 22.016.3
2015-Feb-25 00:00N 26°42' W 041°00'   100 / 201026.010.8 21.515.7

Dump ship's entire track history